sensor_id;sensor_type;location;lat;lon;timestamp;temperature;humidity
16485;DHT22;8353;47.856;12.344;2023-07-20T00:02:16;21.70;99.90
16485;DHT22;8353;47.856;12.344;2023-07-20T00:04:48;21.50;99.90
16485;DHT22;8353;47.856;12.344;2023-07-20T00:07:18;21.30;99.90
16485;DHT22;8353;47.856;12.344;2023-07-20T00:09:49;21.10;99.90
16485;DHT22;8353;47.856;12.344;2023-07-20T00:12:19;20.90;99.90
16485;DHT22;8353;47.856;12.344;2023-07-20T00:14:50;20.90;99.90
16485;DHT22;8353;47.856;12.344;2023-07-20T00:17:22;20.80;99.90
16485;DHT22;8353;47.856;12.344;2023-07-20T00:19:54;20.90;99.90
16485;DHT22;8353;47.856;12.344;2023-07-20T00:22:24;20.90;99.90
16485;DHT22;8353;47.856;12.344;2023-07-20T00:24:55;20.70;99.90
16485;DHT22;8353;47.856;12.344;2023-07-20T00:27:25;20.40;99.90
16485;DHT22;8353;47.856;12.344;2023-07-20T00:29:57;20.40;99.90
16485;DHT22;8353;47.856;12.344;2023-07-20T00:32:27;20.40;99.90
16485;DHT22;8353;47.856;12.344;2023-07-20T00:34:59;20.30;99.90
16485;DHT22;8353;47.856;12.344;2023-07-20T00:37:29;20.30;99.90
16485;DHT22;8353;47.856;12.344;2023-07-20T00:40:00;20.50;99.90
16485;DHT22;8353;47.856;12.344;2023-07-20T00:42:33;20.60;99.90
16485;DHT22;8353;47.856;12.344;2023-07-20T00:45:05;20.70;99.90
16485;DHT22;8353;47.856;12.344;2023-07-20T00:47:36;20.80;99.90
16485;DHT22;8353;47.856;12.344;2023-07-20T00:50:09;21.00;99.90
16485;DHT22;8353;47.856;12.344;2023-07-20T00:52:40;21.20;99.90
16485;DHT22;8353;47.856;12.344;2023-07-20T00:55:12;21.20;99.90
16485;DHT22;8353;47.856;12.344;2023-07-20T00:57:42;21.00;99.90
16485;DHT22;8353;47.856;12.344;2023-07-20T01:00:14;20.90;99.90
16485;DHT22;8353;47.856;12.344;2023-07-20T01:02:45;20.80;99.90
16485;DHT22;8353;47.856;12.344;2023-07-20T01:05:17;20.60;99.90
16485;DHT22;8353;47.856;12.344;2023-07-20T01:07:55;20.60;99.90
16485;DHT22;8353;47.856;12.344;2023-07-20T01:10:33;20.40;99.90
16485;DHT22;8353;47.856;12.344;2023-07-20T01:13:09;20.10;99.90
16485;DHT22;8353;47.856;12.344;2023-07-20T01:15:39;20.10;99.90
16485;DHT22;8353;47.856;12.344;2023-07-20T01:18:10;20.40;99.90
16485;DHT22;8353;47.856;12.344;2023-07-20T01:20:41;20.30;99.90
16485;DHT22;8353;47.856;12.344;2023-07-20T01:23:35;20.00;99.90
16485;DHT22;8353;47.856;12.344;2023-07-20T01:26:31;20.00;99.90
16485;DHT22;8353;47.856;12.344;2023-07-20T01:29:26;20.00;99.90
16485;DHT22;8353;47.856;12.344;2023-07-20T01:32:04;20.00;99.90
16485;DHT22;8353;47.856;12.344;2023-07-20T01:34:37;20.00;99.90
16485;DHT22;8353;47.856;12.344;2023-07-20T01:37:09;20.00;99.90
16485;DHT22;8353;47.856;12.344;2023-07-20T01:39:40;19.90;99.90
16485;DHT22;8353;47.856;12.344;2023-07-20T01:42:11;19.90;99.90
16485;DHT22;8353;47.856;12.344;2023-07-20T01:44:42;20.00;99.90
16485;DHT22;8353;47.856;12.344;2023-07-20T01:47:14;19.80;99.90
16485;DHT22;8353;47.856;12.344;2023-07-20T01:49:45;19.70;99.90
16485;DHT22;8353;47.856;12.344;2023-07-20T01:52:16;19.70;99.90
16485;DHT22;8353;47.856;12.344;2023-07-20T01:54:46;19.80;99.90
16485;DHT22;8353;47.856;12.344;2023-07-20T01:57:17;19.80;99.90
16485;DHT22;8353;47.856;12.344;2023-07-20T01:59:48;19.90;99.90
16485;DHT22;8353;47.856;12.344;2023-07-20T02:02:20;20.00;99.90
16485;DHT22;8353;47.856;12.344;2023-07-20T02:04:51;20.10;99.90
16485;DHT22;8353;47.856;12.344;2023-07-20T02:07:22;20.20;99.90
16485;DHT22;8353;47.856;12.344;2023-07-20T02:09:53;20.30;99.90
16485;DHT22;8353;47.856;12.344;2023-07-20T02:12:23;20.20;99.90
16485;DHT22;8353;47.856;12.344;2023-07-20T02:14:53;20.10;99.90
16485;DHT22;8353;47.856;12.344;2023-07-20T02:17:25;20.00;99.90
16485;DHT22;8353;47.856;12.344;2023-07-20T02:19:56;19.90;99.90
16485;DHT22;8353;47.856;12.344;2023-07-20T02:22:27;20.10;99.90
16485;DHT22;8353;47.856;12.344;2023-07-20T02:24:58;20.10;99.90
16485;DHT22;8353;47.856;12.344;2023-07-20T02:27:28;19.90;99.90
16485;DHT22;8353;47.856;12.344;2023-07-20T02:29:59;19.90;99.90
16485;DHT22;8353;47.856;12.344;2023-07-20T02:32:32;20.00;99.90
16485;DHT22;8353;47.856;12.344;2023-07-20T02:35:03;20.10;99.90
16485;DHT22;8353;47.856;12.344;2023-07-20T02:37:34;20.10;99.90
16485;DHT22;8353;47.856;12.344;2023-07-20T02:40:05;20.10;99.90
16485;DHT22;8353;47.856;12.344;2023-07-20T02:42:36;20.20;99.90
16485;DHT22;8353;47.856;12.344;2023-07-20T02:45:08;20.20;99.90
16485;DHT22;8353;47.856;12.344;2023-07-20T02:47:40;20.20;99.90
16485;DHT22;8353;47.856;12.344;2023-07-20T02:50:11;20.20;99.90
16485;DHT22;8353;47.856;12.344;2023-07-20T02:52:43;20.20;99.90
16485;DHT22;8353;47.856;12.344;2023-07-20T02:55:14;20.10;99.90
16485;DHT22;8353;47.856;12.344;2023-07-20T02:57:44;20.10;99.90
16485;DHT22;8353;47.856;12.344;2023-07-20T03:00:15;19.90;99.90
16485;DHT22;8353;47.856;12.344;2023-07-20T03:02:48;19.90;99.90
16485;DHT22;8353;47.856;12.344;2023-07-20T03:05:21;19.90;99.90
16485;DHT22;8353;47.856;12.344;2023-07-20T03:07:55;19.90;99.90
16485;DHT22;8353;47.856;12.344;2023-07-20T03:10:26;20.00;99.90
16485;DHT22;8353;47.856;12.344;2023-07-20T03:12:56;20.00;99.90
16485;DHT22;8353;47.856;12.344;2023-07-20T03:15:26;20.10;99.90
16485;DHT22;8353;47.856;12.344;2023-07-20T03:18:00;20.40;99.90
16485;DHT22;8353;47.856;12.344;2023-07-20T03:20:31;20.50;99.90
16485;DHT22;8353;47.856;12.344;2023-07-20T03:23:01;20.40;99.90
16485;DHT22;8353;47.856;12.344;2023-07-20T03:25:31;20.30;99.90
16485;DHT22;8353;47.856;12.344;2023-07-20T03:28:02;20.20;99.90
16485;DHT22;8353;47.856;12.344;2023-07-20T03:30:34;20.20;99.90
16485;DHT22;8353;47.856;12.344;2023-07-20T03:33:06;20.10;99.90
16485;DHT22;8353;47.856;12.344;2023-07-20T03:35:36;20.10;99.90
16485;DHT22;8353;47.856;12.344;2023-07-20T03:38:07;20.20;99.90
16485;DHT22;8353;47.856;12.344;2023-07-20T03:40:38;20.20;99.90
16485;DHT22;8353;47.856;12.344;2023-07-20T03:43:08;20.00;99.90
16485;DHT22;8353;47.856;12.344;2023-07-20T03:45:38;19.90;99.90
16485;DHT22;8353;47.856;12.344;2023-07-20T03:48:10;20.00;99.90
16485;DHT22;8353;47.856;12.344;2023-07-20T03:50:44;20.20;99.90
16485;DHT22;8353;47.856;12.344;2023-07-20T03:53:14;20.10;99.90
16485;DHT22;8353;47.856;12.344;2023-07-20T03:55:46;20.10;99.90
16485;DHT22;8353;47.856;12.344;2023-07-20T03:58:17;20.10;99.90
16485;DHT22;8353;47.856;12.344;2023-07-20T04:00:50;20.00;99.90
16485;DHT22;8353;47.856;12.344;2023-07-20T04:03:22;19.90;99.90
16485;DHT22;8353;47.856;12.344;2023-07-20T04:05:55;19.90;99.90
16485;DHT22;8353;47.856;12.344;2023-07-20T04:08:25;19.90;99.90
16485;DHT22;8353;47.856;12.344;2023-07-20T04:10:56;20.00;99.90
16485;DHT22;8353;47.856;12.344;2023-07-20T04:13:26;20.00;99.90
16485;DHT22;8353;47.856;12.344;2023-07-20T04:15:57;20.00;99.90
16485;DHT22;8353;47.856;12.344;2023-07-20T04:18:29;20.00;99.90
16485;DHT22;8353;47.856;12.344;2023-07-20T04:20:59;19.90;99.90
16485;DHT22;8353;47.856;12.344;2023-07-20T04:23:29;19.90;99.90
16485;DHT22;8353;47.856;12.344;2023-07-20T04:26:00;19.90;99.90
16485;DHT22;8353;47.856;12.344;2023-07-20T04:28:30;20.00;99.90
16485;DHT22;8353;47.856;12.344;2023-07-20T04:31:09;20.10;99.90
16485;DHT22;8353;47.856;12.344;2023-07-20T04:33:42;20.20;99.90
16485;DHT22;8353;47.856;12.344;2023-07-20T04:36:12;20.10;99.90
16485;DHT22;8353;47.856;12.344;2023-07-20T04:38:46;20.10;99.90
16485;DHT22;8353;47.856;12.344;2023-07-20T04:41:16;20.20;99.90
16485;DHT22;8353;47.856;12.344;2023-07-20T04:43:47;20.30;99.90
16485;DHT22;8353;47.856;12.344;2023-07-20T04:46:18;20.30;99.90
16485;DHT22;8353;47.856;12.344;2023-07-20T04:48:54;20.20;99.90
16485;DHT22;8353;47.856;12.344;2023-07-20T04:51:24;20.20;99.90
16485;DHT22;8353;47.856;12.344;2023-07-20T04:53:55;20.20;99.90
16485;DHT22;8353;47.856;12.344;2023-07-20T04:56:25;20.20;99.90
16485;DHT22;8353;47.856;12.344;2023-07-20T04:58:56;20.20;99.90
16485;DHT22;8353;47.856;12.344;2023-07-20T05:01:26;20.30;99.90
16485;DHT22;8353;47.856;12.344;2023-07-20T05:03:58;20.30;99.90
16485;DHT22;8353;47.856;12.344;2023-07-20T05:06:29;20.30;99.90
16485;DHT22;8353;47.856;12.344;2023-07-20T05:08:59;20.30;99.90
16485;DHT22;8353;47.856;12.344;2023-07-20T05:11:30;20.30;99.90
16485;DHT22;8353;47.856;12.344;2023-07-20T05:14:00;20.20;99.90
16485;DHT22;8353;47.856;12.344;2023-07-20T05:16:31;20.10;99.90
16485;DHT22;8353;47.856;12.344;2023-07-20T05:19:03;20.00;99.90
16485;DHT22;8353;47.856;12.344;2023-07-20T05:21:51;20.00;99.90
16485;DHT22;8353;47.856;12.344;2023-07-20T05:24:22;20.00;99.90
16485;DHT22;8353;47.856;12.344;2023-07-20T05:26:52;19.90;99.90
16485;DHT22;8353;47.856;12.344;2023-07-20T05:29:24;19.90;99.90
16485;DHT22;8353;47.856;12.344;2023-07-20T05:31:54;19.90;99.90
16485;DHT22;8353;47.856;12.344;2023-07-20T05:34:26;19.90;99.90
16485;DHT22;8353;47.856;12.344;2023-07-20T05:36:58;19.90;99.90
16485;DHT22;8353;47.856;12.344;2023-07-20T05:39:28;19.80;99.90
16485;DHT22;8353;47.856;12.344;2023-07-20T05:41:59;19.80;99.90
16485;DHT22;8353;47.856;12.344;2023-07-20T05:44:30;19.90;99.90
16485;DHT22;8353;47.856;12.344;2023-07-20T05:47:00;19.80;99.90
16485;DHT22;8353;47.856;12.344;2023-07-20T05:49:33;19.80;99.90
16485;DHT22;8353;47.856;12.344;2023-07-20T05:52:05;19.80;99.90
16485;DHT22;8353;47.856;12.344;2023-07-20T05:54:35;19.70;99.90
16485;DHT22;8353;47.856;12.344;2023-07-20T05:57:06;19.70;99.90
16485;DHT22;8353;47.856;12.344;2023-07-20T05:59:37;19.70;99.90
16485;DHT22;8353;47.856;12.344;2023-07-20T06:02:09;19.60;99.90
16485;DHT22;8353;47.856;12.344;2023-07-20T06:04:41;19.60;99.90
16485;DHT22;8353;47.856;12.344;2023-07-20T06:07:12;19.60;99.90
16485;DHT22;8353;47.856;12.344;2023-07-20T06:09:42;19.50;99.90
16485;DHT22;8353;47.856;12.344;2023-07-20T06:12:13;19.50;99.90
16485;DHT22;8353;47.856;12.344;2023-07-20T06:14:43;19.50;99.90
16485;DHT22;8353;47.856;12.344;2023-07-20T06:17:14;19.50;99.90
16485;DHT22;8353;47.856;12.344;2023-07-20T06:19:46;19.40;99.90
16485;DHT22;8353;47.856;12.344;2023-07-20T06:22:16;19.50;99.90
16485;DHT22;8353;47.856;12.344;2023-07-20T06:24:47;19.50;99.90
16485;DHT22;8353;47.856;12.344;2023-07-20T06:27:17;19.60;99.90
16485;DHT22;8353;47.856;12.344;2023-07-20T06:29:48;19.70;99.90
16485;DHT22;8353;47.856;12.344;2023-07-20T06:32:18;19.60;99.90
16485;DHT22;8353;47.856;12.344;2023-07-20T06:34:50;19.60;99.90
16485;DHT22;8353;47.856;12.344;2023-07-20T06:37:21;19.50;99.90
16485;DHT22;8353;47.856;12.344;2023-07-20T06:39:51;19.60;99.90
16485;DHT22;8353;47.856;12.344;2023-07-20T06:42:21;19.60;99.90
16485;DHT22;8353;47.856;12.344;2023-07-20T06:44:52;19.60;99.90
16485;DHT22;8353;47.856;12.344;2023-07-20T06:47:23;19.60;99.90
16485;DHT22;8353;47.856;12.344;2023-07-20T06:49:55;19.80;99.90
16485;DHT22;8353;47.856;12.344;2023-07-20T06:52:25;19.90;99.90
16485;DHT22;8353;47.856;12.344;2023-07-20T06:54:56;19.90;99.90
16485;DHT22;8353;47.856;12.344;2023-07-20T06:57:26;19.70;99.90
16485;DHT22;8353;47.856;12.344;2023-07-20T06:59:57;19.70;99.90
16485;DHT22;8353;47.856;12.344;2023-07-20T07:02:27;19.90;99.90
16485;DHT22;8353;47.856;12.344;2023-07-20T07:04:59;19.90;99.90
16485;DHT22;8353;47.856;12.344;2023-07-20T07:07:30;19.70;99.90
16485;DHT22;8353;47.856;12.344;2023-07-20T07:10:00;19.70;99.90
16485;DHT22;8353;47.856;12.344;2023-07-20T07:12:33;19.70;99.90
16485;DHT22;8353;47.856;12.344;2023-07-20T07:15:05;19.80;99.90
16485;DHT22;8353;47.856;12.344;2023-07-20T07:17:35;19.80;99.90
16485;DHT22;8353;47.856;12.344;2023-07-20T07:20:08;19.80;99.90
16485;DHT22;8353;47.856;12.344;2023-07-20T07:22:39;19.90;99.90
16485;DHT22;8353;47.856;12.344;2023-07-20T07:25:14;19.90;99.90
16485;DHT22;8353;47.856;12.344;2023-07-20T07:27:44;20.00;99.90
16485;DHT22;8353;47.856;12.344;2023-07-20T07:30:15;20.00;99.90
16485;DHT22;8353;47.856;12.344;2023-07-20T07:32:46;20.20;99.90
16485;DHT22;8353;47.856;12.344;2023-07-20T07:35:18;20.00;99.90
16485;DHT22;8353;47.856;12.344;2023-07-20T07:37:48;19.90;99.90
16485;DHT22;8353;47.856;12.344;2023-07-20T07:40:19;19.90;99.90
16485;DHT22;8353;47.856;12.344;2023-07-20T07:42:49;20.00;99.90
16485;DHT22;8353;47.856;12.344;2023-07-20T07:45:20;20.10;99.90
16485;DHT22;8353;47.856;12.344;2023-07-20T07:47:50;20.20;99.90
16485;DHT22;8353;47.856;12.344;2023-07-20T07:50:23;20.40;99.90
16485;DHT22;8353;47.856;12.344;2023-07-20T07:52:53;20.50;99.90
16485;DHT22;8353;47.856;12.344;2023-07-20T07:55:25;20.50;99.90
16485;DHT22;8353;47.856;12.344;2023-07-20T07:57:57;20.60;99.90
16485;DHT22;8353;47.856;12.344;2023-07-20T08:00:28;20.70;99.90
16485;DHT22;8353;47.856;12.344;2023-07-20T08:02:58;20.80;99.90
16485;DHT22;8353;47.856;12.344;2023-07-20T08:05:29;20.90;99.90
16485;DHT22;8353;47.856;12.344;2023-07-20T08:08:00;21.00;99.90
16485;DHT22;8353;47.856;12.344;2023-07-20T08:10:31;21.20;99.90
16485;DHT22;8353;47.856;12.344;2023-07-20T08:13:02;21.20;99.90
16485;DHT22;8353;47.856;12.344;2023-07-20T08:15:32;21.30;99.90
16485;DHT22;8353;47.856;12.344;2023-07-20T08:18:03;21.30;99.90
16485;DHT22;8353;47.856;12.344;2023-07-20T08:20:35;21.20;99.90
16485;DHT22;8353;47.856;12.344;2023-07-20T08:23:06;21.30;99.90
16485;DHT22;8353;47.856;12.344;2023-07-20T08:25:36;21.40;99.90
16485;DHT22;8353;47.856;12.344;2023-07-20T08:28:10;21.40;99.90
16485;DHT22;8353;47.856;12.344;2023-07-20T08:30:46;21.70;99.90
16485;DHT22;8353;47.856;12.344;2023-07-20T08:33:18;21.80;99.90
16485;DHT22;8353;47.856;12.344;2023-07-20T08:35:50;21.70;99.90
16485;DHT22;8353;47.856;12.344;2023-07-20T08:38:21;21.90;99.90
16485;DHT22;8353;47.856;12.344;2023-07-20T08:40:54;22.10;99.90
16485;DHT22;8353;47.856;12.344;2023-07-20T08:43:28;22.30;99.90
16485;DHT22;8353;47.856;12.344;2023-07-20T08:46:03;22.50;99.90
16485;DHT22;8353;47.856;12.344;2023-07-20T08:48:35;22.80;99.90
16485;DHT22;8353;47.856;12.344;2023-07-20T08:51:06;22.90;99.90
16485;DHT22;8353;47.856;12.344;2023-07-20T08:53:37;23.00;99.90
16485;DHT22;8353;47.856;12.344;2023-07-20T08:56:11;23.30;99.90
16485;DHT22;8353;47.856;12.344;2023-07-20T08:58:43;23.50;99.90
16485;DHT22;8353;47.856;12.344;2023-07-20T09:01:14;23.80;99.90
16485;DHT22;8353;47.856;12.344;2023-07-20T09:03:45;24.00;99.90
16485;DHT22;8353;47.856;12.344;2023-07-20T09:06:17;24.10;99.90
16485;DHT22;8353;47.856;12.344;2023-07-20T09:08:48;24.30;99.90
16485;DHT22;8353;47.856;12.344;2023-07-20T09:11:19;24.60;99.90
16485;DHT22;8353;47.856;12.344;2023-07-20T09:14:02;24.70;99.90
16485;DHT22;8353;47.856;12.344;2023-07-20T09:16:47;24.80;99.90
16485;DHT22;8353;47.856;12.344;2023-07-20T09:19:18;24.70;99.90
16485;DHT22;8353;47.856;12.344;2023-07-20T09:21:52;24.80;99.90
16485;DHT22;8353;47.856;12.344;2023-07-20T09:24:22;24.70;99.90
16485;DHT22;8353;47.856;12.344;2023-07-20T09:26:55;24.70;99.90
16485;DHT22;8353;47.856;12.344;2023-07-20T09:29:25;24.70;99.90
16485;DHT22;8353;47.856;12.344;2023-07-20T09:31:59;24.80;99.90
16485;DHT22;8353;47.856;12.344;2023-07-20T09:34:31;25.00;99.90
16485;DHT22;8353;47.856;12.344;2023-07-20T09:37:03;25.10;99.90
16485;DHT22;8353;47.856;12.344;2023-07-20T09:39:42;25.10;99.90
16485;DHT22;8353;47.856;12.344;2023-07-20T09:42:13;25.10;99.90
16485;DHT22;8353;47.856;12.344;2023-07-20T09:44:44;25.20;99.90
16485;DHT22;8353;47.856;12.344;2023-07-20T09:47:22;25.30;99.90
16485;DHT22;8353;47.856;12.344;2023-07-20T09:49:58;25.50;99.90
16485;DHT22;8353;47.856;12.344;2023-07-20T09:52:31;25.60;99.90
16485;DHT22;8353;47.856;12.344;2023-07-20T09:55:04;25.60;99.90
16485;DHT22;8353;47.856;12.344;2023-07-20T09:57:35;25.60;99.90
16485;DHT22;8353;47.856;12.344;2023-07-20T10:00:07;25.50;99.90
16485;DHT22;8353;47.856;12.344;2023-07-20T10:02:43;25.70;99.90
16485;DHT22;8353;47.856;12.344;2023-07-20T10:05:14;26.00;99.90
16485;DHT22;8353;47.856;12.344;2023-07-20T10:07:47;26.20;99.90
16485;DHT22;8353;47.856;12.344;2023-07-20T10:10:19;26.30;99.90
16485;DHT22;8353;47.856;12.344;2023-07-20T10:12:50;26.50;99.90
16485;DHT22;8353;47.856;12.344;2023-07-20T10:15:25;26.40;99.90
16485;DHT22;8353;47.856;12.344;2023-07-20T10:18:02;26.20;99.90
16485;DHT22;8353;47.856;12.344;2023-07-20T10:20:36;26.10;99.90
16485;DHT22;8353;47.856;12.344;2023-07-20T10:23:08;26.20;99.90
16485;DHT22;8353;47.856;12.344;2023-07-20T10:25:40;26.20;99.90
16485;DHT22;8353;47.856;12.344;2023-07-20T10:28:15;26.20;99.90
16485;DHT22;8353;47.856;12.344;2023-07-20T10:30:47;26.00;99.90
16485;DHT22;8353;47.856;12.344;2023-07-20T10:33:18;26.00;99.90
16485;DHT22;8353;47.856;12.344;2023-07-20T10:35:53;26.10;99.90
16485;DHT22;8353;47.856;12.344;2023-07-20T10:38:40;26.10;99.90
16485;DHT22;8353;47.856;12.344;2023-07-20T10:41:18;26.20;99.90
16485;DHT22;8353;47.856;12.344;2023-07-20T10:43:49;26.40;99.90
16485;DHT22;8353;47.856;12.344;2023-07-20T10:46:43;26.30;99.90
16485;DHT22;8353;47.856;12.344;2023-07-20T10:49:14;26.60;99.90
16485;DHT22;8353;47.856;12.344;2023-07-20T10:51:47;26.80;99.90
16485;DHT22;8353;47.856;12.344;2023-07-20T10:57:32;27.10;99.90
16485;DHT22;8353;47.856;12.344;2023-07-20T11:00:10;27.20;99.90
16485;DHT22;8353;47.856;12.344;2023-07-20T11:02:43;27.40;99.90
16485;DHT22;8353;47.856;12.344;2023-07-20T11:05:37;27.10;99.90
16485;DHT22;8353;47.856;12.344;2023-07-20T11:08:11;27.10;99.90
16485;DHT22;8353;47.856;12.344;2023-07-20T11:10:41;27.40;99.90
16485;DHT22;8353;47.856;12.344;2023-07-20T11:13:24;27.40;99.90
16485;DHT22;8353;47.856;12.344;2023-07-20T11:16:02;27.30;99.90
16485;DHT22;8353;47.856;12.344;2023-07-20T11:18:34;27.10;99.90
16485;DHT22;8353;47.856;12.344;2023-07-20T11:21:09;27.20;99.90
16485;DHT22;8353;47.856;12.344;2023-07-20T11:23:41;27.50;99.90
16485;DHT22;8353;47.856;12.344;2023-07-20T11:26:14;27.60;99.90
16485;DHT22;8353;47.856;12.344;2023-07-20T11:28:49;27.80;99.90
16485;DHT22;8353;47.856;12.344;2023-07-20T11:31:20;27.80;99.90
16485;DHT22;8353;47.856;12.344;2023-07-20T11:33:53;28.00;99.90
16485;DHT22;8353;47.856;12.344;2023-07-20T11:36:25;28.00;99.90
16485;DHT22;8353;47.856;12.344;2023-07-20T11:38:55;27.50;99.90
16485;DHT22;8353;47.856;12.344;2023-07-20T11:41:25;27.80;99.90
16485;DHT22;8353;47.856;12.344;2023-07-20T11:43:58;28.00;99.90
16485;DHT22;8353;47.856;12.344;2023-07-20T11:46:29;28.30;99.90
16485;DHT22;8353;47.856;12.344;2023-07-20T11:49:01;28.20;99.90
16485;DHT22;8353;47.856;12.344;2023-07-20T11:51:32;28.20;99.90
16485;DHT22;8353;47.856;12.344;2023-07-20T11:54:05;28.40;99.90
16485;DHT22;8353;47.856;12.344;2023-07-20T11:56:36;28.60;99.90
16485;DHT22;8353;47.856;12.344;2023-07-20T11:59:08;28.50;99.90
16485;DHT22;8353;47.856;12.344;2023-07-20T12:01:45;28.10;99.90
16485;DHT22;8353;47.856;12.344;2023-07-20T12:04:15;28.40;99.90
16485;DHT22;8353;47.856;12.344;2023-07-20T12:06:49;28.90;99.90
16485;DHT22;8353;47.856;12.344;2023-07-20T12:09:21;29.00;99.90
16485;DHT22;8353;47.856;12.344;2023-07-20T12:11:51;29.10;99.90
16485;DHT22;8353;47.856;12.344;2023-07-20T12:14:28;29.10;99.90
16485;DHT22;8353;47.856;12.344;2023-07-20T12:16:58;29.20;99.90
16485;DHT22;8353;47.856;12.344;2023-07-20T12:19:29;28.70;99.90
16485;DHT22;8353;47.856;12.344;2023-07-20T12:22:02;28.70;99.90
16485;DHT22;8353;47.856;12.344;2023-07-20T12:24:32;28.70;99.90
16485;DHT22;8353;47.856;12.344;2023-07-20T12:27:03;28.70;99.90
16485;DHT22;8353;47.856;12.344;2023-07-20T12:29:39;28.70;99.90
16485;DHT22;8353;47.856;12.344;2023-07-20T12:32:10;28.90;99.90
16485;DHT22;8353;47.856;12.344;2023-07-20T12:34:40;28.70;99.90
16485;DHT22;8353;47.856;12.344;2023-07-20T12:37:10;28.80;99.90
16485;DHT22;8353;47.856;12.344;2023-07-20T12:39:41;28.80;99.90
16485;DHT22;8353;47.856;12.344;2023-07-20T12:42:14;28.90;99.90
16485;DHT22;8353;47.856;12.344;2023-07-20T12:44:49;29.00;99.90
16485;DHT22;8353;47.856;12.344;2023-07-20T12:47:19;29.00;99.90
16485;DHT22;8353;47.856;12.344;2023-07-20T12:49:50;28.80;99.90
16485;DHT22;8353;47.856;12.344;2023-07-20T12:52:21;28.50;99.90
16485;DHT22;8353;47.856;12.344;2023-07-20T12:54:51;28.60;99.90
16485;DHT22;8353;47.856;12.344;2023-07-20T12:57:22;28.80;99.90
16485;DHT22;8353;47.856;12.344;2023-07-20T12:59:56;28.70;99.90
16485;DHT22;8353;47.856;12.344;2023-07-20T13:02:26;28.70;99.90
16485;DHT22;8353;47.856;12.344;2023-07-20T13:04:57;28.50;99.90
16485;DHT22;8353;47.856;12.344;2023-07-20T13:07:31;28.60;99.90
16485;DHT22;8353;47.856;12.344;2023-07-20T13:10:03;28.60;99.90
16485;DHT22;8353;47.856;12.344;2023-07-20T13:12:35;28.70;99.90
16485;DHT22;8353;47.856;12.344;2023-07-20T13:15:09;28.50;99.90
16485;DHT22;8353;47.856;12.344;2023-07-20T13:17:41;28.30;99.90
16485;DHT22;8353;47.856;12.344;2023-07-20T13:20:12;28.30;99.90
16485;DHT22;8353;47.856;12.344;2023-07-20T13:22:43;28.50;99.90
16485;DHT22;8353;47.856;12.344;2023-07-20T13:25:17;28.90;99.90
16485;DHT22;8353;47.856;12.344;2023-07-20T13:27:47;29.10;99.90
16485;DHT22;8353;47.856;12.344;2023-07-20T13:30:21;29.00;99.90
16485;DHT22;8353;47.856;12.344;2023-07-20T13:32:52;28.80;99.90
16485;DHT22;8353;47.856;12.344;2023-07-20T13:35:22;28.90;99.90
16485;DHT22;8353;47.856;12.344;2023-07-20T13:37:53;28.90;99.90
16485;DHT22;8353;47.856;12.344;2023-07-20T13:40:25;28.80;99.90
16485;DHT22;8353;47.856;12.344;2023-07-20T13:42:56;28.60;99.90
16485;DHT22;8353;47.856;12.344;2023-07-20T13:45:27;28.50;99.90
16485;DHT22;8353;47.856;12.344;2023-07-20T13:47:58;28.70;99.90
16485;DHT22;8353;47.856;12.344;2023-07-20T13:50:28;28.70;99.90
16485;DHT22;8353;47.856;12.344;2023-07-20T13:52:59;28.50;99.90
16485;DHT22;8353;47.856;12.344;2023-07-20T13:55:32;28.50;99.90
16485;DHT22;8353;47.856;12.344;2023-07-20T13:58:05;28.60;99.90
16485;DHT22;8353;47.856;12.344;2023-07-20T14:00:37;28.50;99.90
16485;DHT22;8353;47.856;12.344;2023-07-20T14:03:08;28.50;99.90
16485;DHT22;8353;47.856;12.344;2023-07-20T14:05:38;28.50;99.90
16485;DHT22;8353;47.856;12.344;2023-07-20T14:08:09;28.50;99.90
16485;DHT22;8353;47.856;12.344;2023-07-20T14:10:45;28.50;99.90
16485;DHT22;8353;47.856;12.344;2023-07-20T14:13:16;28.50;99.90
16485;DHT22;8353;47.856;12.344;2023-07-20T14:15:48;28.80;99.90
16485;DHT22;8353;47.856;12.344;2023-07-20T14:18:18;28.90;99.90
16485;DHT22;8353;47.856;12.344;2023-07-20T14:20:49;28.60;99.90
16485;DHT22;8353;47.856;12.344;2023-07-20T14:23:20;28.50;99.90
16485;DHT22;8353;47.856;12.344;2023-07-20T14:25:50;28.80;99.90
16485;DHT22;8353;47.856;12.344;2023-07-20T14:28:23;28.70;99.90
16485;DHT22;8353;47.856;12.344;2023-07-20T14:30:54;28.80;99.90
16485;DHT22;8353;47.856;12.344;2023-07-20T14:33:25;28.90;99.90
16485;DHT22;8353;47.856;12.344;2023-07-20T14:35:55;29.00;99.90
16485;DHT22;8353;47.856;12.344;2023-07-20T14:38:28;29.10;99.90
16485;DHT22;8353;47.856;12.344;2023-07-20T14:40:59;28.90;99.90
16485;DHT22;8353;47.856;12.344;2023-07-20T14:43:32;28.70;99.90
16485;DHT22;8353;47.856;12.344;2023-07-20T14:46:04;28.40;99.90
16485;DHT22;8353;47.856;12.344;2023-07-20T14:48:35;28.80;99.90
16485;DHT22;8353;47.856;12.344;2023-07-20T14:51:06;29.30;99.90
16485;DHT22;8353;47.856;12.344;2023-07-20T14:53:36;29.80;99.90
16485;DHT22;8353;47.856;12.344;2023-07-20T14:56:06;30.00;99.90
16485;DHT22;8353;47.856;12.344;2023-07-20T14:58:39;30.00;99.90
16485;DHT22;8353;47.856;12.344;2023-07-20T15:01:11;30.00;99.90
16485;DHT22;8353;47.856;12.344;2023-07-20T15:03:41;30.20;99.90
16485;DHT22;8353;47.856;12.344;2023-07-20T15:06:12;30.50;99.90
16485;DHT22;8353;47.856;12.344;2023-07-20T15:08:42;30.70;99.90
16485;DHT22;8353;47.856;12.344;2023-07-20T15:11:14;30.60;99.90
16485;DHT22;8353;47.856;12.344;2023-07-20T15:13:44;30.50;99.90
16485;DHT22;8353;47.856;12.344;2023-07-20T15:16:17;30.60;99.90
16485;DHT22;8353;47.856;12.344;2023-07-20T15:18:49;30.60;99.90
16485;DHT22;8353;47.856;12.344;2023-07-20T15:21:20;30.50;99.90
16485;DHT22;8353;47.856;12.344;2023-07-20T15:23:53;30.60;99.90
16485;DHT22;8353;47.856;12.344;2023-07-20T15:26:23;30.10;99.90
16485;DHT22;8353;47.856;12.344;2023-07-20T15:28:55;30.10;99.90
16485;DHT22;8353;47.856;12.344;2023-07-20T15:31:28;30.20;99.90
16485;DHT22;8353;47.856;12.344;2023-07-20T15:33:59;30.40;99.90
16485;DHT22;8353;47.856;12.344;2023-07-20T15:36:30;30.40;99.90
16485;DHT22;8353;47.856;12.344;2023-07-20T15:39:01;30.20;99.90
16485;DHT22;8353;47.856;12.344;2023-07-20T15:41:31;29.70;99.90
16485;DHT22;8353;47.856;12.344;2023-07-20T15:44:02;29.90;99.90
16485;DHT22;8353;47.856;12.344;2023-07-20T15:46:49;30.10;99.90
16485;DHT22;8353;47.856;12.344;2023-07-20T15:49:19;30.10;99.90
16485;DHT22;8353;47.856;12.344;2023-07-20T15:51:54;30.30;99.90
16485;DHT22;8353;47.856;12.344;2023-07-20T15:54:25;30.60;99.90
16485;DHT22;8353;47.856;12.344;2023-07-20T15:56:56;30.50;99.90
16485;DHT22;8353;47.856;12.344;2023-07-20T15:59:26;30.50;99.90
16485;DHT22;8353;47.856;12.344;2023-07-20T16:01:58;30.70;99.90
16485;DHT22;8353;47.856;12.344;2023-07-20T16:04:31;30.70;99.90